Middlebranch, Ohio
Current Conditions -  °F | °C
As of 8:51 PM on Friday 28 Nov 2014 (Local Time) from KCAK Reporting Station
Overcast Overcast  
Wind Chill: 18°   Ceiling: 12000
Heat Index: 26°   Visibility: 9mi
Dew Point: 19°   Wind: 8mph
Humidity: 75%   Direction: 180°S
Pressure: 30.16"   Gusts: NA
Location:  40.89°N, 81.33°W
Report Text: KCAK 290151Z 18007KT 9SM BKN120 OVC180 M03/M07 A3016 RMK AO2 SLP232 T10331072
Loading
Personal Weather Stations






























Interactive Weather Map New forecast layout! Learn more

10-Day Weather Forecast

Advertisements
Track Severe Weather on mobile